sensor_id;sensor_type;location;lat;lon;timestamp;pressure;altitude;pressure_sealevel;temperature;humidity
22649;BME280;11491;41.942;24.220;2023-04-30T00:00:41;89626.91;;;8.69;88.75
22649;BME280;11491;41.942;24.220;2023-04-30T00:03:08;89619.44;;;8.74;87.47
22649;BME280;11491;41.942;24.220;2023-04-30T00:05:35;89623.03;;;8.66;87.03
22649;BME280;11491;41.942;24.220;2023-04-30T00:08:04;89615.75;;;8.51;87.99
22649;BME280;11491;41.942;24.220;2023-04-30T00:10:31;89612.06;;;8.55;88.22
22649;BME280;11491;41.942;24.220;2023-04-30T00:12:57;89616.75;;;8.34;88.86
22649;BME280;11491;41.942;24.220;2023-04-30T00:15:24;89619.75;;;8.32;89.52
22649;BME280;11491;41.942;24.220;2023-04-30T00:17:51;89609.44;;;8.43;89.24
22649;BME280;11491;41.942;24.220;2023-04-30T00:20:18;89614.84;;;8.47;89.18
22649;BME280;11491;41.942;24.220;2023-04-30T00:22:44;89610.41;;;8.51;88.96
22649;BME280;11491;41.942;24.220;2023-04-30T00:25:12;89605.97;;;8.55;88.67
22649;BME280;11491;41.942;24.220;2023-04-30T00:27:40;89614.16;;;8.62;88.24
22649;BME280;11491;41.942;24.220;2023-04-30T00:30:07;89609.03;;;8.69;87.79
22649;BME280;11491;41.942;24.220;2023-04-30T00:32:34;89613.25;;;8.70;87.42
22649;BME280;11491;41.942;24.220;2023-04-30T00:35:00;89608.63;;;8.55;88.20
22649;BME280;11491;41.942;24.220;2023-04-30T00:37:30;89620.72;;;8.65;88.45
22649;BME280;11491;41.942;24.220;2023-04-30T00:39:56;89614.16;;;8.62;88.56
22649;BME280;11491;41.942;24.220;2023-04-30T00:42:25;89612.59;;;8.61;89.86
22649;BME280;11491;41.942;24.220;2023-04-30T00:44:51;89617.81;;;8.70;89.18
22649;BME280;11491;41.942;24.220;2023-04-30T00:47:18;89608.59;;;8.67;89.72
22649;BME280;11491;41.942;24.220;2023-04-30T00:49:45;89607.69;;;8.75;89.20
22649;BME280;11491;41.942;24.220;2023-04-30T00:52:12;89608.97;;;8.81;87.81
22649;BME280;11491;41.942;24.220;2023-04-30T00:54:38;89611.06;;;8.88;86.48
22649;BME280;11491;41.942;24.220;2023-04-30T00:57:06;89605.75;;;8.88;86.70
22649;BME280;11491;41.942;24.220;2023-04-30T00:59:37;89604.78;;;8.80;87.11
22649;BME280;11491;41.942;24.220;2023-04-30T01:02:04;89612.13;;;8.71;87.87
22649;BME280;11491;41.942;24.220;2023-04-30T01:04:31;89607.06;;;8.54;88.30
22649;BME280;11491;41.942;24.220;2023-04-30T01:06:58;89605.31;;;8.33;89.01
22649;BME280;11491;41.942;24.220;2023-04-30T01:09:26;89608.44;;;8.35;89.55
22649;BME280;11491;41.942;24.220;2023-04-30T01:11:59;89600.00;;;8.33;89.70
22649;BME280;11491;41.942;24.220;2023-04-30T01:14:39;89607.09;;;8.41;90.04
22649;BME280;11491;41.942;24.220;2023-04-30T01:17:16;89612.19;;;8.47;89.95
22649;BME280;11491;41.942;24.220;2023-04-30T01:19:45;89603.53;;;8.50;89.02
22649;BME280;11491;41.942;24.220;2023-04-30T01:22:29;89608.22;;;8.28;89.93
22649;BME280;11491;41.942;24.220;2023-04-30T01:25:17;89609.13;;;8.32;90.60
22649;BME280;11491;41.942;24.220;2023-04-30T01:28:01;89604.66;;;8.36;90.92
22649;BME280;11491;41.942;24.220;2023-04-30T01:30:30;89596.44;;;8.41;91.35
22649;BME280;11491;41.942;24.220;2023-04-30T01:32:57;89602.19;;;8.56;90.93
22649;BME280;11491;41.942;24.220;2023-04-30T01:35:38;89609.94;;;8.61;91.17
22649;BME280;11491;41.942;24.220;2023-04-30T01:41:01;89606.25;;;8.66;90.89
22649;BME280;11491;41.942;24.220;2023-04-30T01:43:39;89608.94;;;8.66;90.72
22649;BME280;11491;41.942;24.220;2023-04-30T01:46:14;89606.84;;;8.59;90.55
22649;BME280;11491;41.942;24.220;2023-04-30T01:48:52;89605.22;;;8.42;91.45
22649;BME280;11491;41.942;24.220;2023-04-30T01:51:25;89606.22;;;8.37;91.72
22649;BME280;11491;41.942;24.220;2023-04-30T01:53:57;89605.09;;;8.51;91.21
22649;BME280;11491;41.942;24.220;2023-04-30T01:56:30;89600.66;;;8.55;90.52
22649;BME280;11491;41.942;24.220;2023-04-30T01:58:59;89597.78;;;8.48;90.65
22649;BME280;11491;41.942;24.220;2023-04-30T02:01:27;89593.78;;;8.41;91.23
22649;BME280;11491;41.942;24.220;2023-04-30T02:03:55;89589.78;;;8.48;90.02
22649;BME280;11491;41.942;24.220;2023-04-30T02:06:22;89593.78;;;8.41;90.01
22649;BME280;11491;41.942;24.220;2023-04-30T02:08:52;89598.53;;;8.36;89.96
22649;BME280;11491;41.942;24.220;2023-04-30T02:11:19;89594.56;;;8.30;90.09
22649;BME280;11491;41.942;24.220;2023-04-30T02:13:45;89590.09;;;8.34;90.11
22649;BME280;11491;41.942;24.220;2023-04-30T02:16:14;89589.78;;;8.35;89.71
22649;BME280;11491;41.942;24.220;2023-04-30T02:18:41;89588.25;;;8.22;88.92
22649;BME280;11491;41.942;24.220;2023-04-30T02:21:08;89592.25;;;8.28;88.98
22649;BME280;11491;41.942;24.220;2023-04-30T02:23:35;89598.34;;;8.29;88.00
22649;BME280;11491;41.942;24.220;2023-04-30T02:26:01;89598.47;;;8.32;86.49
22649;BME280;11491;41.942;24.220;2023-04-30T02:28:28;89597.81;;;8.23;86.73
22649;BME280;11491;41.942;24.220;2023-04-30T02:30:55;89592.06;;;7.96;88.63
22649;BME280;11491;41.942;24.220;2023-04-30T02:33:23;89599.03;;;8.01;89.00
22649;BME280;11491;41.942;24.220;2023-04-30T02:35:50;89597.69;;;8.07;88.05
22649;BME280;11491;41.942;24.220;2023-04-30T02:38:16;89590.97;;;7.97;88.41
22649;BME280;11491;41.942;24.220;2023-04-30T02:40:43;89588.94;;;7.94;88.67
22649;BME280;11491;41.942;24.220;2023-04-30T02:43:10;89598.28;;;8.01;87.84
22649;BME280;11491;41.942;24.220;2023-04-30T02:45:36;89598.16;;;7.97;88.26
22649;BME280;11491;41.942;24.220;2023-04-30T02:48:03;89600.72;;;7.93;87.68
22649;BME280;11491;41.942;24.220;2023-04-30T02:50:31;89606.28;;;7.88;88.55
22649;BME280;11491;41.942;24.220;2023-04-30T02:52:58;89606.94;;;7.97;87.96
22649;BME280;11491;41.942;24.220;2023-04-30T02:55:25;89606.28;;;7.88;88.41
22649;BME280;11491;41.942;24.220;2023-04-30T02:57:52;89602.72;;;7.84;89.34
22649;BME280;11491;41.942;24.220;2023-04-30T03:00:19;89601.63;;;7.85;89.67
22649;BME280;11491;41.942;24.220;2023-04-30T03:02:48;89606.50;;;7.95;88.89
22649;BME280;11491;41.942;24.220;2023-04-30T03:05:14;89610.81;;;7.88;89.33
22649;BME280;11491;41.942;24.220;2023-04-30T03:07:43;89613.13;;;7.89;89.64
22649;BME280;11491;41.942;24.220;2023-04-30T03:10:09;89618.47;;;7.89;89.26
22649;BME280;11491;41.942;24.220;2023-04-30T03:12:36;89617.16;;;7.95;88.99
22649;BME280;11491;41.942;24.220;2023-04-30T03:15:04;89614.03;;;7.93;88.79
22649;BME280;11491;41.942;24.220;2023-04-30T03:17:31;89591.19;;;7.68;89.07
22649;BME280;11491;41.942;24.220;2023-04-30T03:19:57;89614.47;;;7.83;88.94
22649;BME280;11491;41.942;24.220;2023-04-30T03:22:24;89614.13;;;7.72;88.92
22649;BME280;11491;41.942;24.220;2023-04-30T03:24:52;89615.78;;;7.65;89.75
22649;BME280;11491;41.942;24.220;2023-04-30T03:27:19;89621.56;;;7.67;89.71
22649;BME280;11491;41.942;24.220;2023-04-30T03:29:45;89625.13;;;7.71;90.18
22649;BME280;11491;41.942;24.220;2023-04-30T03:32:13;89616.56;;;7.77;88.79
22649;BME280;11491;41.942;24.220;2023-04-30T03:34:39;89613.25;;;7.68;89.21
22649;BME280;11491;41.942;24.220;2023-04-30T03:37:06;89624.00;;;7.72;89.73
22649;BME280;11491;41.942;24.220;2023-04-30T03:39:33;89617.59;;;7.61;89.91
22649;BME280;11491;41.942;24.220;2023-04-30T03:42:01;89627.56;;;7.76;88.69
22649;BME280;11491;41.942;24.220;2023-04-30T03:44:28;89629.47;;;7.75;89.03
22649;BME280;11491;41.942;24.220;2023-04-30T03:46:55;89626.66;;;7.72;89.17
22649;BME280;11491;41.942;24.220;2023-04-30T03:49:22;89623.13;;;7.68;89.45
22649;BME280;11491;41.942;24.220;2023-04-30T03:51:48;89631.22;;;7.84;88.45
22649;BME280;11491;41.942;24.220;2023-04-30T03:54:15;89636.88;;;7.82;87.81
22649;BME280;11491;41.942;24.220;2023-04-30T03:56:42;89645.53;;;7.79;87.75
22649;BME280;11491;41.942;24.220;2023-04-30T03:59:10;89646.28;;;7.80;87.71
22649;BME280;11491;41.942;24.220;2023-04-30T04:01:37;89641.53;;;7.73;88.06
22649;BME280;11491;41.942;24.220;2023-04-30T04:04:04;89645.97;;;7.69;88.62
22649;BME280;11491;41.942;24.220;2023-04-30T04:06:30;89646.16;;;7.51;89.82
22649;BME280;11491;41.942;24.220;2023-04-30T04:08:57;89648.59;;;7.57;90.15
22649;BME280;11491;41.942;24.220;2023-04-30T04:11:24;89649.28;;;7.53;89.94
22649;BME280;11491;41.942;24.220;2023-04-30T04:13:51;89649.06;;;7.59;90.11
22649;BME280;11491;41.942;24.220;2023-04-30T04:16:19;89652.63;;;7.63;90.09
22649;BME280;11491;41.942;24.220;2023-04-30T04:18:46;89650.38;;;7.65;90.29
22649;BME280;11491;41.942;24.220;2023-04-30T04:21:13;89653.72;;;7.74;90.13
22649;BME280;11491;41.942;24.220;2023-04-30T04:23:39;89654.84;;;7.85;89.54
22649;BME280;11491;41.942;24.220;2023-04-30T04:26:06;89664.59;;;7.93;89.43
22649;BME280;11491;41.942;24.220;2023-04-30T04:28:34;89659.06;;;7.98;88.79
22649;BME280;11491;41.942;24.220;2023-04-30T04:31:02;89659.97;;;8.03;88.34
22649;BME280;11491;41.942;24.220;2023-04-30T04:33:30;89656.19;;;8.04;88.47
22649;BME280;11491;41.942;24.220;2023-04-30T04:35:57;89664.94;;;8.04;89.09
22649;BME280;11491;41.942;24.220;2023-04-30T04:38:24;89658.16;;;8.19;88.87
22649;BME280;11491;41.942;24.220;2023-04-30T04:40:51;89659.28;;;8.30;87.84
22649;BME280;11491;41.942;24.220;2023-04-30T04:43:18;89661.03;;;8.38;86.98
22649;BME280;11491;41.942;24.220;2023-04-30T04:45:45;89661.38;;;8.25;87.05
22649;BME280;11491;41.942;24.220;2023-04-30T04:48:12;89650.53;;;8.17;87.85
22649;BME280;11491;41.942;24.220;2023-04-30T04:50:40;89658.59;;;8.21;88.30
22649;BME280;11491;41.942;24.220;2023-04-30T04:53:07;89656.38;;;8.35;87.81
22649;BME280;11491;41.942;24.220;2023-04-30T04:55:34;89661.28;;;8.46;87.75
22649;BME280;11491;41.942;24.220;2023-04-30T04:58:01;89664.59;;;8.55;87.80
22649;BME280;11491;41.942;24.220;2023-04-30T05:00:28;89672.66;;;8.71;87.31
22649;BME280;11491;41.942;24.220;2023-04-30T05:02:54;89667.53;;;8.78;87.30
22649;BME280;11491;41.942;24.220;2023-04-30T05:05:21;89669.47;;;8.93;87.27
22649;BME280;11491;41.942;24.220;2023-04-30T05:07:49;89672.03;;;9.02;86.48
22649;BME280;11491;41.942;24.220;2023-04-30T05:10:19;89674.25;;;9.00;86.65
22649;BME280;11491;41.942;24.220;2023-04-30T05:12:46;89670.66;;;9.08;85.92
22649;BME280;11491;41.942;24.220;2023-04-30T05:15:12;89668.63;;;9.17;84.40
22649;BME280;11491;41.942;24.220;2023-04-30T05:17:39;89641.47;;;8.99;84.81
22649;BME280;11491;41.942;24.220;2023-04-30T05:20:07;89672.44;;;9.04;85.58
22649;BME280;11491;41.942;24.220;2023-04-30T05:22:34;89678.41;;;9.13;86.55
22649;BME280;11491;41.942;24.220;2023-04-30T05:25:02;89675.69;;;9.25;85.66
22649;BME280;11491;41.942;24.220;2023-04-30T05:27:29;89675.88;;;9.33;85.06
22649;BME280;11491;41.942;24.220;2023-04-30T05:29:56;89679.56;;;9.28;84.20
22649;BME280;11491;41.942;24.220;2023-04-30T05:32:23;89679.00;;;9.35;83.62
22649;BME280;11491;41.942;24.220;2023-04-30T05:34:50;89676.94;;;9.44;83.14
22649;BME280;11491;41.942;24.220;2023-04-30T05:37:17;89679.38;;;9.49;83.13
22649;BME280;11491;41.942;24.220;2023-04-30T05:39:44;89685.56;;;9.53;83.25
22649;BME280;11491;41.942;24.220;2023-04-30T05:42:13;89688.09;;;9.62;84.16
22649;BME280;11491;41.942;24.220;2023-04-30T05:44:39;89681.47;;;9.72;83.04
22649;BME280;11491;41.942;24.220;2023-04-30T05:47:06;89683.28;;;9.83;82.33
22649;BME280;11491;41.942;24.220;2023-04-30T05:49:33;89688.03;;;9.90;82.95
22649;BME280;11491;41.942;24.220;2023-04-30T05:52:00;89686.63;;;9.96;82.19
22649;BME280;11491;41.942;24.220;2023-04-30T05:54:28;89684.56;;;10.05;82.65
22649;BME280;11491;41.942;24.220;2023-04-30T05:56:54;89692.50;;;10.18;81.71
22649;BME280;11491;41.942;24.220;2023-04-30T05:59:23;89695.63;;;10.20;81.24
22649;BME280;11491;41.942;24.220;2023-04-30T06:01:50;89688.63;;;10.31;81.86
22649;BME280;11491;41.942;24.220;2023-04-30T06:04:17;89694.75;;;10.47;82.33
22649;BME280;11491;41.942;24.220;2023-04-30T06:06:43;89690.59;;;10.66;79.32
22649;BME280;11491;41.942;24.220;2023-04-30T06:09:10;89696.94;;;10.77;80.11
22649;BME280;11491;41.942;24.220;2023-04-30T06:11:37;89689.94;;;10.88;80.46
22649;BME280;11491;41.942;24.220;2023-04-30T06:14:04;89692.88;;;11.03;78.46
22649;BME280;11491;41.942;24.220;2023-04-30T06:16:33;89689.09;;;11.04;80.30
22649;BME280;11491;41.942;24.220;2023-04-30T06:19:00;89680.09;;;11.12;80.77
22649;BME280;11491;41.942;24.220;2023-04-30T06:21:26;89679.72;;;11.33;81.04
22649;BME280;11491;41.942;24.220;2023-04-30T06:23:53;89692.91;;;11.61;80.20
22649;BME280;11491;41.942;24.220;2023-04-30T06:26:20;89685.91;;;11.76;78.25
22649;BME280;11491;41.942;24.220;2023-04-30T06:28:46;89696.97;;;11.94;75.47
22649;BME280;11491;41.942;24.220;2023-04-30T06:31:13;89692.03;;;11.96;75.28
22649;BME280;11491;41.942;24.220;2023-04-30T06:33:41;89684.28;;;12.14;74.00
22649;BME280;11491;41.942;24.220;2023-04-30T06:36:08;89683.03;;;12.31;70.71
22649;BME280;11491;41.942;24.220;2023-04-30T06:38:35;89686.19;;;12.36;68.85
22649;BME280;11491;41.942;24.220;2023-04-30T06:41:01;89695.75;;;12.60;67.13
22649;BME280;11491;41.942;24.220;2023-04-30T06:43:28;89691.31;;;12.71;60.54
22649;BME280;11491;41.942;24.220;2023-04-30T06:45:55;89692.56;;;12.78;64.59
22649;BME280;11491;41.942;24.220;2023-04-30T06:48:22;89694.63;;;12.88;65.71
22649;BME280;11491;41.942;24.220;2023-04-30T06:50:50;89697.88;;;13.01;64.21
22649;BME280;11491;41.942;24.220;2023-04-30T06:53:17;89697.41;;;13.22;63.82
22649;BME280;11491;41.942;24.220;2023-04-30T06:55:44;89696.88;;;13.39;64.24
22649;BME280;11491;41.942;24.220;2023-04-30T06:58:11;89697.72;;;13.47;63.19
22649;BME280;11491;41.942;24.220;2023-04-30T07:00:38;89695.19;;;13.61;64.05
22649;BME280;11491;41.942;24.220;2023-04-30T07:03:05;89695.81;;;13.81;62.50
22649;BME280;11491;41.942;24.220;2023-04-30T07:05:32;89691.25;;;13.85;60.51
22649;BME280;11491;41.942;24.220;2023-04-30T07:08:02;89696.13;;;13.76;58.55
22649;BME280;11491;41.942;24.220;2023-04-30T07:10:29;89698.03;;;13.72;58.12
22649;BME280;11491;41.942;24.220;2023-04-30T07:12:55;89690.03;;;13.45;59.94
22649;BME280;11491;41.942;24.220;2023-04-30T07:15:23;89694.41;;;13.27;59.05
22649;BME280;11491;41.942;24.220;2023-04-30T07:17:50;89691.50;;;13.39;62.38
22649;BME280;11491;41.942;24.220;2023-04-30T07:20:17;89700.88;;;13.26;59.17
22649;BME280;11491;41.942;24.220;2023-04-30T07:22:43;89689.72;;;13.24;60.09
22649;BME280;11491;41.942;24.220;2023-04-30T07:25:12;89694.41;;;13.27;58.85
22649;BME280;11491;41.942;24.220;2023-04-30T07:27:39;89697.94;;;13.04;58.45
22649;BME280;11491;41.942;24.220;2023-04-30T07:30:07;89699.47;;;13.05;60.38
22649;BME280;11491;41.942;24.220;2023-04-30T07:32:35;89698.25;;;12.73;61.10
22649;BME280;11491;41.942;24.220;2023-04-30T07:35:01;89702.66;;;12.61;62.26
22649;BME280;11491;41.942;24.220;2023-04-30T07:37:28;89708.84;;;12.65;60.37
22649;BME280;11491;41.942;24.220;2023-04-30T07:39:55;89711.22;;;12.70;61.63
22649;BME280;11491;41.942;24.220;2023-04-30T07:42:23;89711.00;;;12.56;62.00
22649;BME280;11491;41.942;24.220;2023-04-30T07:44:51;89708.94;;;12.46;61.18
22649;BME280;11491;41.942;24.220;2023-04-30T07:47:18;89713.38;;;12.61;62.62
22649;BME280;11491;41.942;24.220;2023-04-30T07:49:45;89720.31;;;12.62;60.26
22649;BME280;11491;41.942;24.220;2023-04-30T07:52:12;89718.75;;;12.61;62.06
22649;BME280;11491;41.942;24.220;2023-04-30T07:54:39;89711.78;;;12.57;62.12
22649;BME280;11491;41.942;24.220;2023-04-30T07:57:06;89706.63;;;12.21;62.23
22649;BME280;11491;41.942;24.220;2023-04-30T07:59:34;89717.22;;;12.14;62.79
22649;BME280;11491;41.942;24.220;2023-04-30T08:02:01;89716.03;;;12.35;63.09
22649;BME280;11491;41.942;24.220;2023-04-30T08:04:28;89712.50;;;12.54;61.27
22649;BME280;11491;41.942;24.220;2023-04-30T08:06:54;89714.47;;;12.34;61.41
22649;BME280;11491;41.942;24.220;2023-04-30T08:09:21;89688.75;;;12.06;62.13
22649;BME280;11491;41.942;24.220;2023-04-30T08:11:48;89714.38;;;12.26;63.28
22649;BME280;11491;41.942;24.220;2023-04-30T08:14:15;89715.31;;;12.38;62.67
22649;BME280;11491;41.942;24.220;2023-04-30T08:16:43;89711.91;;;12.41;62.95
22649;BME280;11491;41.942;24.220;2023-04-30T08:19:10;89713.84;;;12.40;63.64
22649;BME280;11491;41.942;24.220;2023-04-30T08:21:36;89716.50;;;12.63;62.14
22649;BME280;11491;41.942;24.220;2023-04-30T08:24:04;89710.31;;;12.36;63.10
22649;BME280;11491;41.942;24.220;2023-04-30T08:26:30;89712.47;;;12.77;63.06
22649;BME280;11491;41.942;24.220;2023-04-30T08:28:57;89714.63;;;12.94;59.82
22649;BME280;11491;41.942;24.220;2023-04-30T08:31:24;89721.69;;;12.79;62.46
22649;BME280;11491;41.942;24.220;2023-04-30T08:33:52;89722.22;;;12.88;60.91
22649;BME280;11491;41.942;24.220;2023-04-30T08:36:19;89720.84;;;12.98;58.93
22649;BME280;11491;41.942;24.220;2023-04-30T08:38:46;89715.59;;;13.09;58.76
22649;BME280;11491;41.942;24.220;2023-04-30T08:41:13;89712.22;;;12.36;59.73
22649;BME280;11491;41.942;24.220;2023-04-30T08:43:42;89718.63;;;12.54;61.32
22649;BME280;11491;41.942;24.220;2023-04-30T08:46:10;89718.88;;;12.68;59.91
22649;BME280;11491;41.942;24.220;2023-04-30T08:48:39;89713.63;;;12.29;59.86
22649;BME280;11491;41.942;24.220;2023-04-30T08:51:08;89713.94;;;12.47;60.95
22649;BME280;11491;41.942;24.220;2023-04-30T08:53:35;89717.59;;;12.85;60.02
22649;BME280;11491;41.942;24.220;2023-04-30T08:56:03;89710.81;;;12.68;58.10
22649;BME280;11491;41.942;24.220;2023-04-30T08:58:30;89710.81;;;12.68;58.91
22649;BME280;11491;41.942;24.220;2023-04-30T09:00:57;89702.69;;;12.88;59.77
22649;BME280;11491;41.942;24.220;2023-04-30T09:03:24;89702.59;;;13.11;57.75
22649;BME280;11491;41.942;24.220;2023-04-30T09:05:51;89707.41;;;13.25;57.60
22649;BME280;11491;41.942;24.220;2023-04-30T09:08:40;89707.53;;;13.32;57.01
22649;BME280;11491;41.942;24.220;2023-04-30T09:11:19;89714.22;;;13.19;57.26
22649;BME280;11491;41.942;24.220;2023-04-30T09:13:48;89702.31;;;13.46;58.09
22649;BME280;11491;41.942;24.220;2023-04-30T09:16:17;89707.59;;;14.07;56.26
22649;BME280;11491;41.942;24.220;2023-04-30T09:18:44;89714.06;;;14.43;52.82
22649;BME280;11491;41.942;24.220;2023-04-30T09:21:10;89705.94;;;14.73;53.08
22649;BME280;11491;41.942;24.220;2023-04-30T09:23:53;89696.00;;;14.84;51.96
22649;BME280;11491;41.942;24.220;2023-04-30T09:26:21;89702.19;;;14.89;54.27
22649;BME280;11491;41.942;24.220;2023-04-30T09:28:55;89696.94;;;15.10;49.33
22649;BME280;11491;41.942;24.220;2023-04-30T09:31:23;89704.59;;;15.01;50.91
22649;BME280;11491;41.942;24.220;2023-04-30T09:33:50;89691.59;;;15.14;49.38
22649;BME280;11491;41.942;24.220;2023-04-30T09:36:17;89702.13;;;14.81;53.24
22649;BME280;11491;41.942;24.220;2023-04-30T09:38:45;89691.19;;;14.60;52.65
22649;BME280;11491;41.942;24.220;2023-04-30T09:41:23;89696.03;;;14.88;49.86
22649;BME280;11491;41.942;24.220;2023-04-30T09:43:50;89693.72;;;14.86;51.04
22649;BME280;11491;41.942;24.220;2023-04-30T09:46:18;89691.53;;;15.10;51.46
22649;BME280;11491;41.942;24.220;2023-04-30T09:48:45;89692.03;;;14.68;50.49
22649;BME280;11491;41.942;24.220;2023-04-30T09:51:13;89694.06;;;14.40;51.08
22649;BME280;11491;41.942;24.220;2023-04-30T09:53:41;89686.47;;;14.46;51.69
22649;BME280;11491;41.942;24.220;2023-04-30T09:56:11;89687.41;;;14.68;52.04
22649;BME280;11491;41.942;24.220;2023-04-30T09:58:43;89680.59;;;14.81;49.87
22649;BME280;11491;41.942;24.220;2023-04-30T10:01:14;89679.41;;;14.75;47.70
22649;BME280;11491;41.942;24.220;2023-04-30T10:03:42;89687.16;;;14.39;50.23
22649;BME280;11491;41.942;24.220;2023-04-30T10:06:12;89678.66;;;14.34;49.51
22649;BME280;11491;41.942;24.220;2023-04-30T10:08:41;89680.25;;;14.38;50.73
22649;BME280;11491;41.942;24.220;2023-04-30T10:11:12;89683.38;;;14.48;50.89
22649;BME280;11491;41.942;24.220;2023-04-30T10:13:42;89683.88;;;14.57;52.09
22649;BME280;11491;41.942;24.220;2023-04-30T10:16:14;89680.59;;;14.81;50.18
22649;BME280;11491;41.942;24.220;2023-04-30T10:18:48;89680.50;;;14.67;49.75
22649;BME280;11491;41.942;24.220;2023-04-30T10:21:16;89678.34;;;14.87;50.36
22649;BME280;11491;41.942;24.220;2023-04-30T10:23:43;89679.59;;;15.07;49.64
22649;BME280;11491;41.942;24.220;2023-04-30T10:26:13;89667.66;;;15.05;51.20
22649;BME280;11491;41.942;24.220;2023-04-30T10:28:41;89666.69;;;14.72;51.32
22649;BME280;11491;41.942;24.220;2023-04-30T10:31:08;89676.75;;;14.82;55.17
22649;BME280;11491;41.942;24.220;2023-04-30T10:33:53;89680.75;;;15.06;54.78
22649;BME280;11491;41.942;24.220;2023-04-30T10:36:28;89677.72;;;15.15;54.25
22649;BME280;11491;41.942;24.220;2023-04-30T10:38:58;89678.56;;;15.26;54.48
22649;BME280;11491;41.942;24.220;2023-04-30T10:41:26;89681.63;;;15.21;54.41
22649;BME280;11491;41.942;24.220;2023-04-30T10:43:57;89674.00;;;15.31;53.44
22649;BME280;11491;41.942;24.220;2023-04-30T10:46:27;89672.47;;;15.37;53.20
22649;BME280;11491;41.942;24.220;2023-04-30T10:48:54;89671.31;;;15.38;52.56
22649;BME280;11491;41.942;24.220;2023-04-30T10:51:21;89667.28;;;15.76;57.06
22649;BME280;11491;41.942;24.220;2023-04-30T10:53:49;89670.09;;;16.51;53.87
22649;BME280;11491;41.942;24.220;2023-04-30T10:56:32;89664.34;;;16.67;51.35
22649;BME280;11491;41.942;24.220;2023-04-30T10:58:59;89661.25;;;17.05;48.57
22649;BME280;11491;41.942;24.220;2023-04-30T11:01:27;89653.31;;;17.78;50.30
22649;BME280;11491;41.942;24.220;2023-04-30T11:04:04;89650.78;;;18.23;45.88
22649;BME280;11491;41.942;24.220;2023-04-30T11:06:53;89653.25;;;18.00;46.02
22649;BME280;11491;41.942;24.220;2023-04-30T11:09:34;89651.09;;;17.59;44.18
22649;BME280;11491;41.942;24.220;2023-04-30T11:12:04;89657.34;;;17.34;43.72
22649;BME280;11491;41.942;24.220;2023-04-30T11:14:39;89655.81;;;17.22;46.32
22649;BME280;11491;41.942;24.220;2023-04-30T11:17:06;89648.88;;;17.25;46.74
22649;BME280;11491;41.942;24.220;2023-04-30T11:19:34;89657.34;;;17.31;46.77
22649;BME280;11491;41.942;24.220;2023-04-30T11:22:31;89654.31;;;16.71;45.78
22649;BME280;11491;41.942;24.220;2023-04-30T11:25:04;89655.84;;;16.40;48.21
22649;BME280;11491;41.942;24.220;2023-04-30T11:27:36;89657.38;;;16.23;49.00
22649;BME280;11491;41.942;24.220;2023-04-30T11:30:09;89648.13;;;16.28;47.91
22649;BME280;11491;41.942;24.220;2023-04-30T11:32:38;89648.13;;;16.49;49.89
22649;BME280;11491;41.942;24.220;2023-04-30T11:35:06;89647.38;;;16.74;48.93
22649;BME280;11491;41.942;24.220;2023-04-30T11:37:34;89652.78;;;16.95;47.63
22649;BME280;11491;41.942;24.220;2023-04-30T11:40:03;89646.59;;;16.98;46.69
22649;BME280;11491;41.942;24.220;2023-04-30T11:42:31;89649.66;;;17.15;48.79
22649;BME280;11491;41.942;24.220;2023-04-30T11:45:05;89656.59;;;17.23;51.69
22649;BME280;11491;41.942;24.220;2023-04-30T11:47:39;89672.03;;;16.69;49.21
22649;BME280;11491;41.942;24.220;2023-04-30T11:50:07;89653.50;;;16.21;50.64
22649;BME280;11491;41.942;24.220;2023-04-30T11:52:34;89665.81;;;16.14;54.83
22649;BME280;11491;41.942;24.220;2023-04-30T11:55:04;89665.75;;;15.79;60.71
22649;BME280;11491;41.942;24.220;2023-04-30T11:57:39;89673.41;;;15.77;56.41
22649;BME280;11491;41.942;24.220;2023-04-30T12:00:12;89668.09;;;15.98;63.07
22649;BME280;11491;41.942;24.220;2023-04-30T12:02:40;89654.28;;;16.39;65.24
22649;BME280;11491;41.942;24.220;2023-04-30T12:05:15;89657.78;;;17.04;64.63
22649;BME280;11491;41.942;24.220;2023-04-30T12:07:49;89646.44;;;17.63;58.70
22649;BME280;11491;41.942;24.220;2023-04-30T12:10:18;89651.78;;;17.84;58.66
22649;BME280;11491;41.942;24.220;2023-04-30T12:12:47;89644.75;;;18.01;54.46
22649;BME280;11491;41.942;24.220;2023-04-30T12:15:16;89641.50;;;18.28;53.75
22649;BME280;11491;41.942;24.220;2023-04-30T12:17:44;89644.88;;;18.46;48.60
22649;BME280;11491;41.942;24.220;2023-04-30T12:20:14;89635.19;;;18.49;50.89
22649;BME280;11491;41.942;24.220;2023-04-30T12:22:41;89629.44;;;18.96;48.05
22649;BME280;11491;41.942;24.220;2023-04-30T12:25:11;89634.63;;;19.21;50.82
22649;BME280;11491;41.942;24.220;2023-04-30T12:27:40;89634.31;;;19.49;47.46
22649;BME280;11491;41.942;24.220;2023-04-30T12:30:08;89620.59;;;19.64;49.20
22649;BME280;11491;41.942;24.220;2023-04-30T12:32:41;89618.03;;;20.18;49.54
22649;BME280;11491;41.942;24.220;2023-04-30T12:35:12;89611.38;;;20.50;41.08
22649;BME280;11491;41.942;24.220;2023-04-30T12:37:41;89600.84;;;20.79;41.65
22649;BME280;11491;41.942;24.220;2023-04-30T12:40:10;89604.34;;;21.03;42.05
22649;BME280;11491;41.942;24.220;2023-04-30T12:42:36;89602.44;;;21.23;44.43
22649;BME280;11491;41.942;24.220;2023-04-30T12:45:04;89604.09;;;21.17;39.66
22649;BME280;11491;41.942;24.220;2023-04-30T12:47:31;89601.22;;;20.54;38.60
22649;BME280;11491;41.942;24.220;2023-04-30T12:49:59;89596.31;;;20.18;42.32
22649;BME280;11491;41.942;24.220;2023-04-30T12:52:26;89604.38;;;19.94;39.70
22649;BME280;11491;41.942;24.220;2023-04-30T12:54:53;89609.81;;;19.22;42.80
22649;BME280;11491;41.942;24.220;2023-04-30T12:57:20;89622.81;;;18.48;47.16
22649;BME280;11491;41.942;24.220;2023-04-30T12:59:57;89593.72;;;18.07;52.26
22649;BME280;11491;41.942;24.220;2023-04-30T13:02:26;89618.16;;;17.78;52.81
22649;BME280;11491;41.942;24.220;2023-04-30T13:04:53;89623.41;;;17.19;54.02